sensor_id;sensor_type;location;lat;lon;timestamp;P1;durP1;ratioP1;P2;durP2;ratioP2
10769;SDS011;5437;50.852;4.438;2023-02-14T00:02:03;20.85;;;14.27;;
10769;SDS011;5437;50.852;4.438;2023-02-14T00:04:30;21.20;;;15.32;;
10769;SDS011;5437;50.852;4.438;2023-02-14T00:06:56;21.17;;;14.90;;
10769;SDS011;5437;50.852;4.438;2023-02-14T00:09:22;19.77;;;14.82;;
10769;SDS011;5437;50.852;4.438;2023-02-14T00:11:48;20.02;;;14.43;;
10769;SDS011;5437;50.852;4.438;2023-02-14T00:14:14;21.15;;;14.73;;
10769;SDS011;5437;50.852;4.438;2023-02-14T00:16:59;20.10;;;14.75;;
10769;SDS011;5437;50.852;4.438;2023-02-14T00:19:25;19.70;;;14.38;;
10769;SDS011;5437;50.852;4.438;2023-02-14T00:21:52;21.65;;;14.88;;
10769;SDS011;5437;50.852;4.438;2023-02-14T00:24:19;20.40;;;14.52;;
10769;SDS011;5437;50.852;4.438;2023-02-14T00:26:45;23.88;;;14.48;;
10769;SDS011;5437;50.852;4.438;2023-02-14T00:29:13;21.02;;;14.57;;
10769;SDS011;5437;50.852;4.438;2023-02-14T00:31:40;19.05;;;14.60;;
10769;SDS011;5437;50.852;4.438;2023-02-14T00:34:06;19.45;;;14.38;;
10769;SDS011;5437;50.852;4.438;2023-02-14T00:36:32;18.90;;;14.25;;
10769;SDS011;5437;50.852;4.438;2023-02-14T00:39:01;19.77;;;14.93;;
10769;SDS011;5437;50.852;4.438;2023-02-14T00:41:27;19.27;;;14.60;;
10769;SDS011;5437;50.852;4.438;2023-02-14T00:43:53;18.98;;;13.57;;
10769;SDS011;5437;50.852;4.438;2023-02-14T00:46:20;19.23;;;14.00;;
10769;SDS011;5437;50.852;4.438;2023-02-14T00:48:47;19.35;;;13.57;;
10769;SDS011;5437;50.852;4.438;2023-02-14T00:51:13;18.30;;;13.65;;
10769;SDS011;5437;50.852;4.438;2023-02-14T00:53:39;21.55;;;14.80;;
10769;SDS011;5437;50.852;4.438;2023-02-14T00:56:06;21.58;;;14.90;;
10769;SDS011;5437;50.852;4.438;2023-02-14T00:58:32;19.98;;;14.13;;
10769;SDS011;5437;50.852;4.438;2023-02-14T01:00:58;20.88;;;14.77;;
10769;SDS011;5437;50.852;4.438;2023-02-14T01:03:24;21.00;;;14.25;;
10769;SDS011;5437;50.852;4.438;2023-02-14T01:05:50;21.20;;;15.45;;
10769;SDS011;5437;50.852;4.438;2023-02-14T01:08:17;19.38;;;14.65;;
10769;SDS011;5437;50.852;4.438;2023-02-14T01:10:43;22.60;;;15.07;;
10769;SDS011;5437;50.852;4.438;2023-02-14T01:13:09;18.48;;;13.80;;
10769;SDS011;5437;50.852;4.438;2023-02-14T01:15:43;20.80;;;14.35;;
10769;SDS011;5437;50.852;4.438;2023-02-14T01:18:09;20.17;;;14.88;;
10769;SDS011;5437;50.852;4.438;2023-02-14T01:20:36;22.02;;;14.40;;
10769;SDS011;5437;50.852;4.438;2023-02-14T01:23:02;21.10;;;15.48;;
10769;SDS011;5437;50.852;4.438;2023-02-14T01:25:28;22.20;;;15.20;;
10769;SDS011;5437;50.852;4.438;2023-02-14T01:27:54;20.65;;;15.30;;
10769;SDS011;5437;50.852;4.438;2023-02-14T01:30:20;21.05;;;15.25;;
10769;SDS011;5437;50.852;4.438;2023-02-14T01:32:46;23.60;;;15.30;;
10769;SDS011;5437;50.852;4.438;2023-02-14T01:35:12;20.35;;;15.05;;
10769;SDS011;5437;50.852;4.438;2023-02-14T01:37:38;22.10;;;15.15;;
10769;SDS011;5437;50.852;4.438;2023-02-14T01:40:05;20.45;;;15.30;;
10769;SDS011;5437;50.852;4.438;2023-02-14T01:42:32;20.40;;;14.82;;
10769;SDS011;5437;50.852;4.438;2023-02-14T01:47:25;22.98;;;15.55;;
10769;SDS011;5437;50.852;4.438;2023-02-14T01:49:53;22.50;;;14.73;;
10769;SDS011;5437;50.852;4.438;2023-02-14T01:52:21;21.80;;;15.32;;
10769;SDS011;5437;50.852;4.438;2023-02-14T01:54:51;19.63;;;14.52;;
10769;SDS011;5437;50.852;4.438;2023-02-14T01:57:19;21.05;;;15.32;;
10769;SDS011;5437;50.852;4.438;2023-02-14T01:59:47;21.83;;;14.55;;
10769;SDS011;5437;50.852;4.438;2023-02-14T02:02:15;21.17;;;15.73;;
10769;SDS011;5437;50.852;4.438;2023-02-14T02:04:47;21.15;;;14.75;;
10769;SDS011;5437;50.852;4.438;2023-02-14T02:07:15;21.25;;;14.73;;
10769;SDS011;5437;50.852;4.438;2023-02-14T02:09:45;19.52;;;14.15;;
10769;SDS011;5437;50.852;4.438;2023-02-14T02:12:11;23.52;;;15.38;;
10769;SDS011;5437;50.852;4.438;2023-02-14T02:14:37;21.13;;;15.05;;
10769;SDS011;5437;50.852;4.438;2023-02-14T02:27:37;21.50;;;15.77;;
10769;SDS011;5437;50.852;4.438;2023-02-14T02:41:10;22.85;;;15.52;;
10769;SDS011;5437;50.852;4.438;2023-02-14T02:43:43;21.48;;;14.50;;
10769;SDS011;5437;50.852;4.438;2023-02-14T02:46:38;20.05;;;14.68;;
10769;SDS011;5437;50.852;4.438;2023-02-14T02:51:59;22.13;;;15.23;;
10769;SDS011;5437;50.852;4.438;2023-02-14T02:54:47;23.75;;;15.20;;
10769;SDS011;5437;50.852;4.438;2023-02-14T02:57:19;24.67;;;15.38;;
10769;SDS011;5437;50.852;4.438;2023-02-14T02:59:46;23.65;;;15.35;;
10769;SDS011;5437;50.852;4.438;2023-02-14T03:02:18;21.73;;;15.07;;
10769;SDS011;5437;50.852;4.438;2023-02-14T03:04:50;21.33;;;14.63;;
10769;SDS011;5437;50.852;4.438;2023-02-14T03:07:20;23.90;;;15.50;;
10769;SDS011;5437;50.852;4.438;2023-02-14T03:10:03;22.25;;;15.60;;
10769;SDS011;5437;50.852;4.438;2023-02-14T03:17:46;22.20;;;15.43;;
10769;SDS011;5437;50.852;4.438;2023-02-14T03:23:08;20.63;;;14.73;;
10769;SDS011;5437;50.852;4.438;2023-02-14T03:25:42;20.20;;;14.52;;
10769;SDS011;5437;50.852;4.438;2023-02-14T09:55:48;25.88;;;16.92;;
10769;SDS011;5437;50.852;4.438;2023-02-14T09:58:19;23.40;;;17.52;;
10769;SDS011;5437;50.852;4.438;2023-02-14T10:01:30;22.80;;;16.75;;
10769;SDS011;5437;50.852;4.438;2023-02-14T10:03:46;20.90;;;16.63;;
10769;SDS011;5437;50.852;4.438;2023-02-14T10:08:54;21.08;;;16.88;;
10769;SDS011;5437;50.852;4.438;2023-02-14T10:11:23;23.23;;;16.83;;
10769;SDS011;5437;50.852;4.438;2023-02-14T10:14:00;21.45;;;16.95;;
10769;SDS011;5437;50.852;4.438;2023-02-14T10:16:30;21.73;;;17.42;;
10769;SDS011;5437;50.852;4.438;2023-02-14T10:21:24;23.90;;;17.85;;
10769;SDS011;5437;50.852;4.438;2023-02-14T10:23:55;21.83;;;17.70;;
10769;SDS011;5437;50.852;4.438;2023-02-14T10:26:32;23.60;;;17.60;;
10769;SDS011;5437;50.852;4.438;2023-02-14T10:29:00;22.45;;;17.65;;
10769;SDS011;5437;50.852;4.438;2023-02-14T10:46:39;22.73;;;17.73;;
10769;SDS011;5437;50.852;4.438;2023-02-14T10:51:52;25.67;;;18.73;;
10769;SDS011;5437;50.852;4.438;2023-02-14T10:54:26;23.33;;;18.40;;
10769;SDS011;5437;50.852;4.438;2023-02-14T10:59:38;26.73;;;18.63;;
10769;SDS011;5437;50.852;4.438;2023-02-14T11:02:07;23.17;;;18.30;;
10769;SDS011;5437;50.852;4.438;2023-02-14T11:04:36;24.00;;;17.48;;
10769;SDS011;5437;50.852;4.438;2023-02-14T11:07:02;24.13;;;18.02;;
10769;SDS011;5437;50.852;4.438;2023-02-14T11:09:28;25.35;;;18.60;;
10769;SDS011;5437;50.852;4.438;2023-02-14T11:11:58;22.88;;;17.90;;
10769;SDS011;5437;50.852;4.438;2023-02-14T11:16:51;24.75;;;17.98;;
10769;SDS011;5437;50.852;4.438;2023-02-14T11:21:46;23.55;;;17.70;;
10769;SDS011;5437;50.852;4.438;2023-02-14T11:32:14;26.00;;;17.85;;
10769;SDS011;5437;50.852;4.438;2023-02-14T11:34:41;25.83;;;18.10;;
10769;SDS011;5437;50.852;4.438;2023-02-14T11:37:17;25.42;;;17.98;;
10769;SDS011;5437;50.852;4.438;2023-02-14T11:39:49;26.85;;;18.42;;
10769;SDS011;5437;50.852;4.438;2023-02-14T11:48:07;26.23;;;18.25;;
10769;SDS011;5437;50.852;4.438;2023-02-14T11:50:36;24.38;;;17.38;;
10769;SDS011;5437;50.852;4.438;2023-02-14T11:53:03;23.48;;;17.20;;
10769;SDS011;5437;50.852;4.438;2023-02-14T11:55:32;24.60;;;17.42;;
10769;SDS011;5437;50.852;4.438;2023-02-14T11:57:59;24.30;;;17.80;;
10769;SDS011;5437;50.852;4.438;2023-02-14T12:00:26;24.95;;;18.08;;
10769;SDS011;5437;50.852;4.438;2023-02-14T12:02:55;23.60;;;17.30;;
10769;SDS011;5437;50.852;4.438;2023-02-14T12:07:51;26.23;;;18.58;;
10769;SDS011;5437;50.852;4.438;2023-02-14T12:10:20;27.88;;;18.42;;
10769;SDS011;5437;50.852;4.438;2023-02-14T12:13:00;26.15;;;18.20;;
10769;SDS011;5437;50.852;4.438;2023-02-14T12:20:37;25.52;;;17.50;;
10769;SDS011;5437;50.852;4.438;2023-02-14T12:23:09;26.50;;;17.25;;
10769;SDS011;5437;50.852;4.438;2023-02-14T12:25:53;25.88;;;17.25;;
10769;SDS011;5437;50.852;4.438;2023-02-14T12:28:23;23.75;;;16.95;;
10769;SDS011;5437;50.852;4.438;2023-02-14T12:30:54;25.15;;;17.05;;
10769;SDS011;5437;50.852;4.438;2023-02-14T12:33:21;26.60;;;17.92;;
10769;SDS011;5437;50.852;4.438;2023-02-14T12:36:02;24.30;;;16.48;;
10769;SDS011;5437;50.852;4.438;2023-02-14T12:43:43;25.92;;;17.08;;
10769;SDS011;5437;50.852;4.438;2023-02-14T12:59:15;24.50;;;16.48;;
10769;SDS011;5437;50.852;4.438;2023-02-14T13:07:23;26.13;;;15.90;;
10769;SDS011;5437;50.852;4.438;2023-02-14T13:09:53;27.52;;;16.98;;
10769;SDS011;5437;50.852;4.438;2023-02-14T13:14:51;25.90;;;15.25;;
10769;SDS011;5437;50.852;4.438;2023-02-14T13:22:31;25.25;;;16.63;;
10769;SDS011;5437;50.852;4.438;2023-02-14T13:25:04;27.23;;;16.73;;
10769;SDS011;5437;50.852;4.438;2023-02-14T13:27:32;22.95;;;15.77;;
10769;SDS011;5437;50.852;4.438;2023-02-14T13:30:01;26.10;;;16.05;;
10769;SDS011;5437;50.852;4.438;2023-02-14T13:32:34;26.65;;;16.83;;
10769;SDS011;5437;50.852;4.438;2023-02-14T13:35:02;27.73;;;16.92;;
10769;SDS011;5437;50.852;4.438;2023-02-14T13:37:28;24.60;;;16.08;;
10769;SDS011;5437;50.852;4.438;2023-02-14T13:39:56;26.40;;;16.10;;
10769;SDS011;5437;50.852;4.438;2023-02-14T13:45:28;26.83;;;16.80;;
10769;SDS011;5437;50.852;4.438;2023-02-14T13:48:09;25.65;;;16.30;;
10769;SDS011;5437;50.852;4.438;2023-02-14T13:50:56;25.90;;;17.13;;
10769;SDS011;5437;50.852;4.438;2023-02-14T13:53:42;24.25;;;16.13;;
10769;SDS011;5437;50.852;4.438;2023-02-14T13:58:53;23.67;;;15.95;;
10769;SDS011;5437;50.852;4.438;2023-02-14T14:10:11;25.27;;;16.73;;
10769;SDS011;5437;50.852;4.438;2023-02-14T14:15:13;24.13;;;16.00;;
10769;SDS011;5437;50.852;4.438;2023-02-14T14:22:45;28.40;;;17.02;;
10769;SDS011;5437;50.852;4.438;2023-02-14T14:25:11;25.45;;;16.83;;
10769;SDS011;5437;50.852;4.438;2023-02-14T14:27:41;27.20;;;16.95;;
10769;SDS011;5437;50.852;4.438;2023-02-14T14:32:36;28.42;;;17.45;;
10769;SDS011;5437;50.852;4.438;2023-02-14T14:35:14;24.83;;;16.08;;
10769;SDS011;5437;50.852;4.438;2023-02-14T14:37:49;25.00;;;16.85;;
10769;SDS011;5437;50.852;4.438;2023-02-14T14:42:50;29.48;;;18.40;;
10769;SDS011;5437;50.852;4.438;2023-02-14T14:45:20;25.40;;;16.40;;
10769;SDS011;5437;50.852;4.438;2023-02-14T14:47:47;23.05;;;15.77;;
10769;SDS011;5437;50.852;4.438;2023-02-14T14:50:18;23.88;;;15.68;;
10769;SDS011;5437;50.852;4.438;2023-02-14T14:52:47;27.58;;;16.15;;
10769;SDS011;5437;50.852;4.438;2023-02-14T14:55:16;29.02;;;17.38;;
10769;SDS011;5437;50.852;4.438;2023-02-14T14:57:46;25.48;;;17.20;;
10769;SDS011;5437;50.852;4.438;2023-02-14T15:02:42;26.50;;;17.27;;
10769;SDS011;5437;50.852;4.438;2023-02-14T15:05:27;25.42;;;16.13;;
10769;SDS011;5437;50.852;4.438;2023-02-14T15:07:53;25.30;;;16.40;;
10769;SDS011;5437;50.852;4.438;2023-02-14T15:10:24;25.85;;;17.58;;
10769;SDS011;5437;50.852;4.438;2023-02-14T15:12:50;28.25;;;16.65;;
10769;SDS011;5437;50.852;4.438;2023-02-14T15:15:36;25.70;;;16.42;;
10769;SDS011;5437;50.852;4.438;2023-02-14T15:18:03;27.80;;;17.80;;
10769;SDS011;5437;50.852;4.438;2023-02-14T15:20:30;22.92;;;16.38;;
10769;SDS011;5437;50.852;4.438;2023-02-14T15:22:57;30.88;;;18.25;;
10769;SDS011;5437;50.852;4.438;2023-02-14T15:25:27;25.75;;;16.98;;
10769;SDS011;5437;50.852;4.438;2023-02-14T15:27:58;27.38;;;17.23;;
10769;SDS011;5437;50.852;4.438;2023-02-14T15:30:26;26.98;;;17.45;;
10769;SDS011;5437;50.852;4.438;2023-02-14T15:32:57;26.77;;;17.80;;
10769;SDS011;5437;50.852;4.438;2023-02-14T15:35:25;28.52;;;17.55;;
10769;SDS011;5437;50.852;4.438;2023-02-14T15:37:52;30.30;;;17.30;;
10769;SDS011;5437;50.852;4.438;2023-02-14T15:40:23;27.33;;;16.33;;
10769;SDS011;5437;50.852;4.438;2023-02-14T15:42:49;27.52;;;17.08;;
10769;SDS011;5437;50.852;4.438;2023-02-14T15:47:53;27.10;;;17.02;;
10769;SDS011;5437;50.852;4.438;2023-02-14T15:50:22;27.23;;;17.55;;
10769;SDS011;5437;50.852;4.438;2023-02-14T15:52:51;28.02;;;17.10;;
10769;SDS011;5437;50.852;4.438;2023-02-14T15:55:19;26.55;;;16.73;;
10769;SDS011;5437;50.852;4.438;2023-02-14T15:57:48;27.98;;;17.27;;
10769;SDS011;5437;50.852;4.438;2023-02-14T16:00:18;26.75;;;16.42;;
10769;SDS011;5437;50.852;4.438;2023-02-14T16:02:48;27.30;;;17.05;;
10769;SDS011;5437;50.852;4.438;2023-02-14T16:05:17;25.65;;;16.60;;
10769;SDS011;5437;50.852;4.438;2023-02-14T16:10:22;29.58;;;17.17;;
10769;SDS011;5437;50.852;4.438;2023-02-14T16:15:20;27.15;;;16.25;;
10769;SDS011;5437;50.852;4.438;2023-02-14T16:17:46;26.27;;;16.05;;
10769;SDS011;5437;50.852;4.438;2023-02-14T16:22:46;24.98;;;15.77;;
10769;SDS011;5437;50.852;4.438;2023-02-14T16:25:14;31.13;;;21.08;;
10769;SDS011;5437;50.852;4.438;2023-02-14T16:27:40;30.58;;;20.63;;
10769;SDS011;5437;50.852;4.438;2023-02-14T16:30:07;32.70;;;21.08;;
10769;SDS011;5437;50.852;4.438;2023-02-14T16:32:33;33.15;;;21.73;;
10769;SDS011;5437;50.852;4.438;2023-02-14T16:35:00;34.17;;;21.33;;
10769;SDS011;5437;50.852;4.438;2023-02-14T16:37:28;34.33;;;22.60;;
10769;SDS011;5437;50.852;4.438;2023-02-14T16:39:55;33.60;;;22.02;;
10769;SDS011;5437;50.852;4.438;2023-02-14T16:42:24;36.83;;;22.60;;
10769;SDS011;5437;50.852;4.438;2023-02-14T16:44:51;36.25;;;22.42;;
10769;SDS011;5437;50.852;4.438;2023-02-14T16:47:18;36.72;;;22.63;;
10769;SDS011;5437;50.852;4.438;2023-02-14T16:49:45;39.10;;;23.10;;
10769;SDS011;5437;50.852;4.438;2023-02-14T16:52:18;37.42;;;23.45;;
10769;SDS011;5437;50.852;4.438;2023-02-14T16:54:45;38.05;;;23.33;;
10769;SDS011;5437;50.852;4.438;2023-02-14T16:57:15;39.25;;;22.55;;
10769;SDS011;5437;50.852;4.438;2023-02-14T16:59:43;37.33;;;22.45;;
10769;SDS011;5437;50.852;4.438;2023-02-14T17:02:09;38.65;;;22.75;;
10769;SDS011;5437;50.852;4.438;2023-02-14T17:04:37;33.83;;;22.10;;
10769;SDS011;5437;50.852;4.438;2023-02-14T17:07:03;35.30;;;22.20;;
10769;SDS011;5437;50.852;4.438;2023-02-14T17:09:31;34.85;;;22.35;;
10769;SDS011;5437;50.852;4.438;2023-02-14T17:11:59;35.97;;;22.13;;
10769;SDS011;5437;50.852;4.438;2023-02-14T17:14:28;34.67;;;22.73;;
10769;SDS011;5437;50.852;4.438;2023-02-14T17:16:54;39.03;;;22.90;;
10769;SDS011;5437;50.852;4.438;2023-02-14T17:19:21;38.88;;;23.58;;
10769;SDS011;5437;50.852;4.438;2023-02-14T17:21:47;37.30;;;22.85;;
10769;SDS011;5437;50.852;4.438;2023-02-14T17:24:13;36.90;;;22.77;;
10769;SDS011;5437;50.852;4.438;2023-02-14T17:26:39;41.15;;;23.17;;
10769;SDS011;5437;50.852;4.438;2023-02-14T17:29:05;38.78;;;23.38;;
10769;SDS011;5437;50.852;4.438;2023-02-14T17:31:32;33.95;;;22.45;;
10769;SDS011;5437;50.852;4.438;2023-02-14T17:33:58;35.53;;;23.60;;
10769;SDS011;5437;50.852;4.438;2023-02-14T17:36:24;39.70;;;23.13;;
10769;SDS011;5437;50.852;4.438;2023-02-14T17:38:52;36.42;;;22.38;;
10769;SDS011;5437;50.852;4.438;2023-02-14T17:41:22;38.22;;;23.45;;
10769;SDS011;5437;50.852;4.438;2023-02-14T17:43:49;38.75;;;25.38;;
10769;SDS011;5437;50.852;4.438;2023-02-14T17:46:16;42.42;;;26.85;;
10769;SDS011;5437;50.852;4.438;2023-02-14T17:48:43;41.15;;;26.30;;
10769;SDS011;5437;50.852;4.438;2023-02-14T17:51:13;41.22;;;30.83;;
10769;SDS011;5437;50.852;4.438;2023-02-14T17:53:39;44.45;;;28.23;;
10769;SDS011;5437;50.852;4.438;2023-02-14T17:56:07;41.95;;;27.88;;
10769;SDS011;5437;50.852;4.438;2023-02-14T17:58:33;43.17;;;27.25;;
10769;SDS011;5437;50.852;4.438;2023-02-14T18:01:01;43.92;;;26.05;;
10769;SDS011;5437;50.852;4.438;2023-02-14T18:03:27;42.05;;;27.02;;
10769;SDS011;5437;50.852;4.438;2023-02-14T18:05:55;39.60;;;26.35;;
10769;SDS011;5437;50.852;4.438;2023-02-14T18:08:21;41.97;;;25.88;;
10769;SDS011;5437;50.852;4.438;2023-02-14T18:10:47;40.70;;;25.77;;
10769;SDS011;5437;50.852;4.438;2023-02-14T18:13:13;41.75;;;25.20;;
10769;SDS011;5437;50.852;4.438;2023-02-14T18:15:39;40.42;;;24.20;;
10769;SDS011;5437;50.852;4.438;2023-02-14T18:18:06;39.10;;;24.00;;
10769;SDS011;5437;50.852;4.438;2023-02-14T18:20:32;38.60;;;24.35;;
10769;SDS011;5437;50.852;4.438;2023-02-14T18:22:58;41.63;;;24.38;;
10769;SDS011;5437;50.852;4.438;2023-02-14T18:25:26;36.65;;;24.23;;
10769;SDS011;5437;50.852;4.438;2023-02-14T18:27:52;37.15;;;24.08;;
10769;SDS011;5437;50.852;4.438;2023-02-14T18:30:18;38.03;;;24.15;;
10769;SDS011;5437;50.852;4.438;2023-02-14T18:32:44;35.45;;;22.85;;
10769;SDS011;5437;50.852;4.438;2023-02-14T18:35:10;39.47;;;23.65;;
10769;SDS011;5437;50.852;4.438;2023-02-14T18:37:36;36.10;;;22.98;;
10769;SDS011;5437;50.852;4.438;2023-02-14T18:40:02;38.17;;;23.17;;
10769;SDS011;5437;50.852;4.438;2023-02-14T18:42:28;41.80;;;23.73;;
10769;SDS011;5437;50.852;4.438;2023-02-14T18:44:55;36.63;;;21.88;;
10769;SDS011;5437;50.852;4.438;2023-02-14T18:47:21;38.13;;;23.05;;
10769;SDS011;5437;50.852;4.438;2023-02-14T18:49:47;39.25;;;21.90;;
10769;SDS011;5437;50.852;4.438;2023-02-14T18:52:13;35.08;;;21.05;;
10769;SDS011;5437;50.852;4.438;2023-02-14T18:54:39;39.35;;;19.95;;
10769;SDS011;5437;50.852;4.438;2023-02-14T18:57:05;33.03;;;21.27;;
10769;SDS011;5437;50.852;4.438;2023-02-14T18:59:32;35.55;;;21.15;;
10769;SDS011;5437;50.852;4.438;2023-02-14T19:01:59;35.30;;;21.80;;
10769;SDS011;5437;50.852;4.438;2023-02-14T19:04:25;34.28;;;21.45;;
10769;SDS011;5437;50.852;4.438;2023-02-14T19:06:51;35.47;;;20.73;;
10769;SDS011;5437;50.852;4.438;2023-02-14T19:09:17;33.15;;;21.80;;
10769;SDS011;5437;50.852;4.438;2023-02-14T19:11:43;29.70;;;20.85;;
10769;SDS011;5437;50.852;4.438;2023-02-14T19:14:09;35.53;;;22.05;;
10769;SDS011;5437;50.852;4.438;2023-02-14T19:16:39;32.45;;;21.15;;
10769;SDS011;5437;50.852;4.438;2023-02-14T19:19:05;32.60;;;21.67;;
10769;SDS011;5437;50.852;4.438;2023-02-14T19:21:32;32.22;;;21.75;;
10769;SDS011;5437;50.852;4.438;2023-02-14T19:23:59;32.25;;;20.98;;
10769;SDS011;5437;50.852;4.438;2023-02-14T19:26:29;34.28;;;22.13;;
10769;SDS011;5437;50.852;4.438;2023-02-14T19:29:02;36.95;;;22.42;;
10769;SDS011;5437;50.852;4.438;2023-02-14T19:31:29;37.58;;;21.77;;
10769;SDS011;5437;50.852;4.438;2023-02-14T19:33:55;39.03;;;22.02;;
10769;SDS011;5437;50.852;4.438;2023-02-14T19:36:21;33.67;;;21.48;;
10769;SDS011;5437;50.852;4.438;2023-02-14T19:38:48;34.72;;;21.33;;
10769;SDS011;5437;50.852;4.438;2023-02-14T19:41:16;29.00;;;20.73;;
10769;SDS011;5437;50.852;4.438;2023-02-14T19:43:43;33.85;;;20.75;;
10769;SDS011;5437;50.852;4.438;2023-02-14T19:46:13;31.40;;;20.65;;
10769;SDS011;5437;50.852;4.438;2023-02-14T19:48:39;30.98;;;20.02;;
10769;SDS011;5437;50.852;4.438;2023-02-14T19:51:05;36.33;;;21.33;;
10769;SDS011;5437;50.852;4.438;2023-02-14T19:53:34;34.35;;;21.23;;
10769;SDS011;5437;50.852;4.438;2023-02-14T19:56:00;31.67;;;20.02;;
10769;SDS011;5437;50.852;4.438;2023-02-14T19:58:26;31.73;;;20.23;;
10769;SDS011;5437;50.852;4.438;2023-02-14T20:00:53;33.80;;;20.38;;
10769;SDS011;5437;50.852;4.438;2023-02-14T20:03:20;34.72;;;21.05;;
10769;SDS011;5437;50.852;4.438;2023-02-14T20:05:46;35.30;;;21.15;;
10769;SDS011;5437;50.852;4.438;2023-02-14T20:08:12;31.25;;;21.20;;
10769;SDS011;5437;50.852;4.438;2023-02-14T20:10:38;38.38;;;24.13;;
10769;SDS011;5437;50.852;4.438;2023-02-14T20:13:05;37.97;;;23.52;;
10769;SDS011;5437;50.852;4.438;2023-02-14T20:15:32;37.03;;;24.48;;
10769;SDS011;5437;50.852;4.438;2023-02-14T20:18:00;36.42;;;22.83;;
10769;SDS011;5437;50.852;4.438;2023-02-14T20:20:26;35.70;;;23.38;;
10769;SDS011;5437;50.852;4.438;2023-02-14T20:23:12;35.78;;;23.48;;
10769;SDS011;5437;50.852;4.438;2023-02-14T20:25:41;40.13;;;23.33;;
10769;SDS011;5437;50.852;4.438;2023-02-14T20:28:08;38.17;;;23.58;;
10769;SDS011;5437;50.852;4.438;2023-02-14T20:30:36;39.22;;;23.20;;
10769;SDS011;5437;50.852;4.438;2023-02-14T20:33:03;36.65;;;23.33;;
10769;SDS011;5437;50.852;4.438;2023-02-14T20:35:29;36.40;;;22.25;;
10769;SDS011;5437;50.852;4.438;2023-02-14T20:37:58;33.97;;;21.90;;
10769;SDS011;5437;50.852;4.438;2023-02-14T20:40:24;42.75;;;24.92;;
10769;SDS011;5437;50.852;4.438;2023-02-14T20:42:50;36.13;;;23.25;;
10769;SDS011;5437;50.852;4.438;2023-02-14T20:45:16;37.05;;;23.77;;
10769;SDS011;5437;50.852;4.438;2023-02-14T20:47:42;38.97;;;23.88;;
10769;SDS011;5437;50.852;4.438;2023-02-14T20:50:12;39.55;;;23.20;;
10769;SDS011;5437;50.852;4.438;2023-02-14T20:52:39;37.78;;;23.73;;
10769;SDS011;5437;50.852;4.438;2023-02-14T20:55:05;38.03;;;23.50;;
10769;SDS011;5437;50.852;4.438;2023-02-14T20:57:31;32.47;;;22.73;;
10769;SDS011;5437;50.852;4.438;2023-02-14T20:59:57;37.58;;;23.27;;
10769;SDS011;5437;50.852;4.438;2023-02-14T21:02:23;37.78;;;23.20;;
10769;SDS011;5437;50.852;4.438;2023-02-14T21:04:49;36.03;;;23.08;;
10769;SDS011;5437;50.852;4.438;2023-02-14T21:07:15;35.00;;;22.67;;
10769;SDS011;5437;50.852;4.438;2023-02-14T21:09:41;35.83;;;23.05;;
10769;SDS011;5437;50.852;4.438;2023-02-14T21:12:07;38.13;;;24.90;;
10769;SDS011;5437;50.852;4.438;2023-02-14T21:14:34;38.45;;;24.05;;
10769;SDS011;5437;50.852;4.438;2023-02-14T21:17:00;37.70;;;24.35;;
10769;SDS011;5437;50.852;4.438;2023-02-14T21:19:28;37.67;;;23.58;;
10769;SDS011;5437;50.852;4.438;2023-02-14T21:21:55;39.22;;;23.85;;
10769;SDS011;5437;50.852;4.438;2023-02-14T21:24:21;38.78;;;25.38;;
10769;SDS011;5437;50.852;4.438;2023-02-14T21:26:48;39.28;;;24.73;;
10769;SDS011;5437;50.852;4.438;2023-02-14T21:29:14;39.42;;;25.08;;
10769;SDS011;5437;50.852;4.438;2023-02-14T21:31:40;35.28;;;24.85;;
10769;SDS011;5437;50.852;4.438;2023-02-14T21:34:06;37.70;;;24.35;;
10769;SDS011;5437;50.852;4.438;2023-02-14T21:36:33;43.38;;;27.45;;
10769;SDS011;5437;50.852;4.438;2023-02-14T21:38:59;37.55;;;24.75;;
10769;SDS011;5437;50.852;4.438;2023-02-14T21:41:27;36.47;;;23.48;;
10769;SDS011;5437;50.852;4.438;2023-02-14T21:43:53;39.25;;;24.70;;
10769;SDS011;5437;50.852;4.438;2023-02-14T21:46:23;34.90;;;23.63;;
10769;SDS011;5437;50.852;4.438;2023-02-14T21:48:54;38.03;;;24.65;;
10769;SDS011;5437;50.852;4.438;2023-02-14T21:51:39;36.47;;;23.38;;
10769;SDS011;5437;50.852;4.438;2023-02-14T21:54:06;33.10;;;23.75;;
10769;SDS011;5437;50.852;4.438;2023-02-14T21:56:32;36.67;;;24.30;;
10769;SDS011;5437;50.852;4.438;2023-02-14T21:58:58;39.40;;;25.40;;
10769;SDS011;5437;50.852;4.438;2023-02-14T22:01:29;39.22;;;24.35;;
10769;SDS011;5437;50.852;4.438;2023-02-14T22:03:57;37.47;;;23.58;;
10769;SDS011;5437;50.852;4.438;2023-02-14T22:06:23;36.10;;;24.45;;
10769;SDS011;5437;50.852;4.438;2023-02-14T22:08:50;35.15;;;23.55;;
10769;SDS011;5437;50.852;4.438;2023-02-14T22:11:17;33.85;;;23.77;;
10769;SDS011;5437;50.852;4.438;2023-02-14T22:13:43;36.97;;;24.13;;
10769;SDS011;5437;50.852;4.438;2023-02-14T22:16:10;42.35;;;25.65;;
10769;SDS011;5437;50.852;4.438;2023-02-14T22:18:37;38.33;;;23.75;;
10769;SDS011;5437;50.852;4.438;2023-02-14T22:21:09;34.92;;;22.95;;
10769;SDS011;5437;50.852;4.438;2023-02-14T22:23:36;33.80;;;22.15;;
10769;SDS011;5437;50.852;4.438;2023-02-14T22:26:08;33.55;;;22.02;;
10769;SDS011;5437;50.852;4.438;2023-02-14T22:28:34;34.33;;;22.20;;
10769;SDS011;5437;50.852;4.438;2023-02-14T22:31:00;33.00;;;21.63;;
10769;SDS011;5437;50.852;4.438;2023-02-14T22:33:26;32.78;;;21.80;;
10769;SDS011;5437;50.852;4.438;2023-02-14T22:35:55;32.95;;;21.35;;
10769;SDS011;5437;50.852;4.438;2023-02-14T22:38:21;33.58;;;22.33;;
10769;SDS011;5437;50.852;4.438;2023-02-14T22:40:47;36.97;;;22.70;;
10769;SDS011;5437;50.852;4.438;2023-02-14T22:43:14;35.05;;;22.70;;
10769;SDS011;5437;50.852;4.438;2023-02-14T22:45:40;36.55;;;22.90;;
10769;SDS011;5437;50.852;4.438;2023-02-14T22:48:06;34.97;;;22.23;;
10769;SDS011;5437;50.852;4.438;2023-02-14T22:50:32;31.92;;;21.52;;
10769;SDS011;5437;50.852;4.438;2023-02-14T22:52:59;34.17;;;22.10;;
10769;SDS011;5437;50.852;4.438;2023-02-14T22:55:25;32.53;;;23.35;;
10769;SDS011;5437;50.852;4.438;2023-02-14T22:57:52;32.35;;;22.40;;
10769;SDS011;5437;50.852;4.438;2023-02-14T23:00:18;35.40;;;22.77;;
10769;SDS011;5437;50.852;4.438;2023-02-14T23:02:44;35.45;;;21.35;;
10769;SDS011;5437;50.852;4.438;2023-02-14T23:05:10;35.78;;;22.08;;
10769;SDS011;5437;50.852;4.438;2023-02-14T23:07:36;33.22;;;22.42;;
10769;SDS011;5437;50.852;4.438;2023-02-14T23:10:02;33.13;;;21.63;;
10769;SDS011;5437;50.852;4.438;2023-02-14T23:12:28;31.58;;;20.95;;
10769;SDS011;5437;50.852;4.438;2023-02-14T23:15:13;36.33;;;22.33;;
10769;SDS011;5437;50.852;4.438;2023-02-14T23:17:58;33.97;;;22.38;;
10769;SDS011;5437;50.852;4.438;2023-02-14T23:20:42;34.75;;;21.67;;
10769;SDS011;5437;50.852;4.438;2023-02-14T23:23:31;37.95;;;22.23;;
10769;SDS011;5437;50.852;4.438;2023-02-14T23:25:57;35.60;;;22.95;;
10769;SDS011;5437;50.852;4.438;2023-02-14T23:28:23;36.78;;;23.00;;
10769;SDS011;5437;50.852;4.438;2023-02-14T23:30:50;35.30;;;22.75;;
10769;SDS011;5437;50.852;4.438;2023-02-14T23:33:16;35.50;;;22.73;;
10769;SDS011;5437;50.852;4.438;2023-02-14T23:35:42;37.35;;;22.98;;
10769;SDS011;5437;50.852;4.438;2023-02-14T23:38:08;33.85;;;22.00;;
10769;SDS011;5437;50.852;4.438;2023-02-14T23:40:34;33.60;;;23.00;;
10769;SDS011;5437;50.852;4.438;2023-02-14T23:43:20;38.00;;;22.40;;
10769;SDS011;5437;50.852;4.438;2023-02-14T23:45:46;32.90;;;21.65;;
10769;SDS011;5437;50.852;4.438;2023-02-14T23:48:12;36.10;;;22.20;;